sensor_id;sensor_type;location;lat;lon;timestamp;pressure;altitude;pressure_sealevel;temperature
48003;BMP280;33768;48.578;11.574;2022-11-03T00:01:03;97017.03;;;5.88
48003;BMP280;33768;48.578;11.574;2022-11-03T00:04:11;97018.25;;;5.87
48003;BMP280;33768;48.578;11.574;2022-11-03T00:07:20;97016.78;;;5.86
48003;BMP280;33768;48.578;11.574;2022-11-03T00:10:24;97010.88;;;5.87
48003;BMP280;33768;48.578;11.574;2022-11-03T00:13:28;97010.81;;;5.82
48003;BMP280;33768;48.578;11.574;2022-11-03T00:16:32;97004.59;;;5.76
48003;BMP280;33768;48.578;11.574;2022-11-03T00:19:37;96999.66;;;5.74
48003;BMP280;33768;48.578;11.574;2022-11-03T00:22:41;96993.22;;;5.72
48003;BMP280;33768;48.578;11.574;2022-11-03T00:25:45;96996.13;;;5.68
48003;BMP280;33768;48.578;11.574;2022-11-03T00:28:51;96997.84;;;5.66
48003;BMP280;33768;48.578;11.574;2022-11-03T00:31:55;96995.13;;;5.66
48003;BMP280;33768;48.578;11.574;2022-11-03T00:35:00;96992.41;;;5.66
48003;BMP280;33768;48.578;11.574;2022-11-03T00:38:04;96991.22;;;5.67
48003;BMP280;33768;48.578;11.574;2022-11-03T00:41:09;96987.75;;;5.66
48003;BMP280;33768;48.578;11.574;2022-11-03T00:44:13;96983.56;;;5.65
48003;BMP280;33768;48.578;11.574;2022-11-03T00:47:17;96982.81;;;5.65
48003;BMP280;33768;48.578;11.574;2022-11-03T00:50:22;96984.78;;;5.64
48003;BMP280;33768;48.578;11.574;2022-11-03T00:53:27;96989.22;;;5.62
48003;BMP280;33768;48.578;11.574;2022-11-03T00:56:37;96975.13;;;5.58
48003;BMP280;33768;48.578;11.574;2022-11-03T00:59:41;96983.25;;;5.58
48003;BMP280;33768;48.578;11.574;2022-11-03T01:02:46;96976.81;;;5.56
48003;BMP280;33768;48.578;11.574;2022-11-03T01:05:50;96979.25;;;5.54
48003;BMP280;33768;48.578;11.574;2022-11-03T01:09:13;96975.81;;;5.53
48003;BMP280;33768;48.578;11.574;2022-11-03T01:12:18;96970.13;;;5.51
48003;BMP280;33768;48.578;11.574;2022-11-03T01:15:22;96964.72;;;5.51
48003;BMP280;33768;48.578;11.574;2022-11-03T01:18:26;96960.81;;;5.52
48003;BMP280;33768;48.578;11.574;2022-11-03T01:21:31;96964.44;;;5.49
48003;BMP280;33768;48.578;11.574;2022-11-03T01:24:35;96954.84;;;5.48
48003;BMP280;33768;48.578;11.574;2022-11-03T01:27:39;96955.13;;;5.50
48003;BMP280;33768;48.578;11.574;2022-11-03T01:30:43;96951.16;;;5.51
48003;BMP280;33768;48.578;11.574;2022-11-03T01:33:50;96946.75;;;5.54
48003;BMP280;33768;48.578;11.574;2022-11-03T01:36:55;96949.00;;;5.55
48003;BMP280;33768;48.578;11.574;2022-11-03T01:39:59;96944.28;;;5.50
48003;BMP280;33768;48.578;11.574;2022-11-03T01:43:21;96943.75;;;5.46
48003;BMP280;33768;48.578;11.574;2022-11-03T01:46:27;96947.41;;;5.43
48003;BMP280;33768;48.578;11.574;2022-11-03T01:52:52;96932.59;;;5.39
48003;BMP280;33768;48.578;11.574;2022-11-03T01:55:58;96922.03;;;5.41
48003;BMP280;33768;48.578;11.574;2022-11-03T01:59:03;96931.66;;;5.42
48003;BMP280;33768;48.578;11.574;2022-11-03T02:02:07;96911.69;;;5.39
48003;BMP280;33768;48.578;11.574;2022-11-03T02:05:14;96915.16;;;5.40
48003;BMP280;33768;48.578;11.574;2022-11-03T02:08:35;96910.94;;;5.39
48003;BMP280;33768;48.578;11.574;2022-11-03T02:11:41;96908.72;;;5.37
48003;BMP280;33768;48.578;11.574;2022-11-03T02:15:07;96902.34;;;5.40
48003;BMP280;33768;48.578;11.574;2022-11-03T02:18:13;96898.91;;;5.40
48003;BMP280;33768;48.578;11.574;2022-11-03T02:21:30;96896.66;;;5.38
48003;BMP280;33768;48.578;11.574;2022-11-03T02:25:15;96888.28;;;5.36
48003;BMP280;33768;48.578;11.574;2022-11-03T02:28:23;96885.53;;;5.31
48003;BMP280;33768;48.578;11.574;2022-11-03T02:31:36;96885.00;;;5.27
48003;BMP280;33768;48.578;11.574;2022-11-03T02:34:51;96890.63;;;5.24
48003;BMP280;33768;48.578;11.574;2022-11-03T02:37:58;96872.38;;;5.19
48003;BMP280;33768;48.578;11.574;2022-11-03T02:41:06;96872.88;;;5.17
48003;BMP280;33768;48.578;11.574;2022-11-03T02:44:15;96866.22;;;5.18
48003;BMP280;33768;48.578;11.574;2022-11-03T02:47:21;96864.00;;;5.17
48003;BMP280;33768;48.578;11.574;2022-11-03T02:50:29;96858.06;;;5.13
48003;BMP280;33768;48.578;11.574;2022-11-03T02:53:38;96841.56;;;5.11
48003;BMP280;33768;48.578;11.574;2022-11-03T02:56:51;96834.94;;;5.12
48003;BMP280;33768;48.578;11.574;2022-11-03T03:00:03;96832.69;;;5.10
48003;BMP280;33768;48.578;11.574;2022-11-03T03:03:17;96823.59;;;5.08
48003;BMP280;33768;48.578;11.574;2022-11-03T03:06:35;96827.53;;;5.07
48003;BMP280;33768;48.578;11.574;2022-11-03T03:09:44;96824.00;;;5.01
48003;BMP280;33768;48.578;11.574;2022-11-03T03:12:51;96818.81;;;4.97
48003;BMP280;33768;48.578;11.574;2022-11-03T03:16:11;96817.53;;;4.93
48003;BMP280;33768;48.578;11.574;2022-11-03T03:22:43;96808.56;;;4.76
48003;BMP280;33768;48.578;11.574;2022-11-03T03:25:59;96823.50;;;4.72
48003;BMP280;33768;48.578;11.574;2022-11-03T03:29:25;96813.41;;;4.72
48003;BMP280;33768;48.578;11.574;2022-11-03T03:32:35;96812.19;;;4.73
48003;BMP280;33768;48.578;11.574;2022-11-03T03:35:43;96810.44;;;4.70
48003;BMP280;33768;48.578;11.574;2022-11-03T03:38:54;96811.41;;;4.67
48003;BMP280;33768;48.578;11.574;2022-11-03T03:42:00;96819.25;;;4.66
48003;BMP280;33768;48.578;11.574;2022-11-03T03:45:06;96821.16;;;4.60
48003;BMP280;33768;48.578;11.574;2022-11-03T03:48:12;96813.28;;;4.56
48003;BMP280;33768;48.578;11.574;2022-11-03T03:51:18;96809.56;;;4.54
48003;BMP280;33768;48.578;11.574;2022-11-03T03:54:25;96807.78;;;4.51
48003;BMP280;33768;48.578;11.574;2022-11-03T03:57:30;96805.84;;;4.51
48003;BMP280;33768;48.578;11.574;2022-11-03T04:00:34;96795.78;;;4.52
48003;BMP280;33768;48.578;11.574;2022-11-03T04:03:38;96794.34;;;4.56
48003;BMP280;33768;48.578;11.574;2022-11-03T04:06:42;96788.44;;;4.58
48003;BMP280;33768;48.578;11.574;2022-11-03T04:09:47;96786.75;;;4.60
48003;BMP280;33768;48.578;11.574;2022-11-03T04:12:51;96778.91;;;4.62
48003;BMP280;33768;48.578;11.574;2022-11-03T04:16:14;96781.06;;;4.58
48003;BMP280;33768;48.578;11.574;2022-11-03T04:19:37;96780.06;;;4.56
48003;BMP280;33768;48.578;11.574;2022-11-03T04:22:59;96781.50;;;4.51
48003;BMP280;33768;48.578;11.574;2022-11-03T04:26:05;96784.91;;;4.46
48003;BMP280;33768;48.578;11.574;2022-11-03T04:29:14;96786.06;;;4.40
48003;BMP280;33768;48.578;11.574;2022-11-03T04:32:18;96773.72;;;4.34
48003;BMP280;33768;48.578;11.574;2022-11-03T04:35:26;96769.72;;;4.29
48003;BMP280;33768;48.578;11.574;2022-11-03T04:38:30;96765.53;;;4.28
48003;BMP280;33768;48.578;11.574;2022-11-03T04:41:35;96769.00;;;4.29
48003;BMP280;33768;48.578;11.574;2022-11-03T04:44:41;96762.63;;;4.32
48003;BMP280;33768;48.578;11.574;2022-11-03T04:47:46;96757.69;;;4.30
48003;BMP280;33768;48.578;11.574;2022-11-03T04:50:55;96750.53;;;4.27
48003;BMP280;33768;48.578;11.574;2022-11-03T04:54:08;96758.66;;;4.27
48003;BMP280;33768;48.578;11.574;2022-11-03T04:57:16;96751.97;;;4.23
48003;BMP280;33768;48.578;11.574;2022-11-03T05:00:21;96744.06;;;4.19
48003;BMP280;33768;48.578;11.574;2022-11-03T05:03:29;96735.91;;;4.14
48003;BMP280;33768;48.578;11.574;2022-11-03T05:06:34;96721.41;;;4.11
48003;BMP280;33768;48.578;11.574;2022-11-03T05:09:38;96719.44;;;4.12
48003;BMP280;33768;48.578;11.574;2022-11-03T05:12:42;96703.75;;;4.16
48003;BMP280;33768;48.578;11.574;2022-11-03T05:15:47;96703.50;;;4.14
48003;BMP280;33768;48.578;11.574;2022-11-03T05:18:52;96697.34;;;4.13
48003;BMP280;33768;48.578;11.574;2022-11-03T05:21:57;96700.28;;;4.15
48003;BMP280;33768;48.578;11.574;2022-11-03T05:25:41;96686.31;;;4.17
48003;BMP280;33768;48.578;11.574;2022-11-03T05:28:56;96684.09;;;4.15
48003;BMP280;33768;48.578;11.574;2022-11-03T05:32:02;96680.59;;;4.09
48003;BMP280;33768;48.578;11.574;2022-11-03T05:35:18;96674.41;;;4.04
48003;BMP280;33768;48.578;11.574;2022-11-03T05:38:24;96658.16;;;3.98
48003;BMP280;33768;48.578;11.574;2022-11-03T05:41:32;96666.25;;;3.98
48003;BMP280;33768;48.578;11.574;2022-11-03T05:44:38;96653.44;;;3.93
48003;BMP280;33768;48.578;11.574;2022-11-03T05:47:43;96648.44;;;3.86
48003;BMP280;33768;48.578;11.574;2022-11-03T05:50:48;96654.75;;;3.78
48003;BMP280;33768;48.578;11.574;2022-11-03T05:53:54;96647.34;;;3.73
48003;BMP280;33768;48.578;11.574;2022-11-03T05:57:00;96644.09;;;3.69
48003;BMP280;33768;48.578;11.574;2022-11-03T06:00:07;96651.63;;;3.65
48003;BMP280;33768;48.578;11.574;2022-11-03T06:03:24;96648.69;;;3.63
48003;BMP280;33768;48.578;11.574;2022-11-03T06:06:35;96652.59;;;3.62
48003;BMP280;33768;48.578;11.574;2022-11-03T06:09:41;96645.72;;;3.61
48003;BMP280;33768;48.578;11.574;2022-11-03T06:12:45;96653.66;;;3.70
48003;BMP280;33768;48.578;11.574;2022-11-03T06:15:55;96647.38;;;3.78
48003;BMP280;33768;48.578;11.574;2022-11-03T06:19:00;96647.94;;;3.88
48003;BMP280;33768;48.578;11.574;2022-11-03T06:25:34;96642.56;;;3.88
48003;BMP280;33768;48.578;11.574;2022-11-03T06:28:39;96647.03;;;3.91
48003;BMP280;33768;48.578;11.574;2022-11-03T06:31:48;96638.75;;;4.00
48003;BMP280;33768;48.578;11.574;2022-11-03T06:34:54;96633.66;;;4.07
48003;BMP280;33768;48.578;11.574;2022-11-03T06:38:00;96627.84;;;4.14
48003;BMP280;33768;48.578;11.574;2022-11-03T06:41:04;96634.53;;;4.18
48003;BMP280;33768;48.578;11.574;2022-11-03T06:44:21;96628.59;;;4.14
48003;BMP280;33768;48.578;11.574;2022-11-03T06:47:27;96630.69;;;4.05
48003;BMP280;33768;48.578;11.574;2022-11-03T06:50:32;96634.81;;;4.01
48003;BMP280;33768;48.578;11.574;2022-11-03T06:53:36;96623.28;;;4.00
48003;BMP280;33768;48.578;11.574;2022-11-03T06:56:40;96622.81;;;4.02
48003;BMP280;33768;48.578;11.574;2022-11-03T06:59:44;96639.81;;;4.07
48003;BMP280;33768;48.578;11.574;2022-11-03T07:02:52;96633.22;;;4.08
48003;BMP280;33768;48.578;11.574;2022-11-03T07:06:19;96630.81;;;4.16
48003;BMP280;33768;48.578;11.574;2022-11-03T07:09:23;96625.47;;;4.21
48003;BMP280;33768;48.578;11.574;2022-11-03T07:12:30;96622.06;;;4.26
48003;BMP280;33768;48.578;11.574;2022-11-03T07:15:35;96625.06;;;4.34
48003;BMP280;33768;48.578;11.574;2022-11-03T07:18:42;96631.72;;;4.38
48003;BMP280;33768;48.578;11.574;2022-11-03T07:21:49;96623.53;;;4.27
48003;BMP280;33768;48.578;11.574;2022-11-03T07:24:55;96617.09;;;4.19
48003;BMP280;33768;48.578;11.574;2022-11-03T07:28:00;96622.06;;;4.26
48003;BMP280;33768;48.578;11.574;2022-11-03T07:31:13;96614.31;;;4.39
48003;BMP280;33768;48.578;11.574;2022-11-03T07:34:21;96600.41;;;4.51
48003;BMP280;33768;48.578;11.574;2022-11-03T07:37:26;96601.72;;;4.67
48003;BMP280;33768;48.578;11.574;2022-11-03T07:40:31;96596.84;;;4.76
48003;BMP280;33768;48.578;11.574;2022-11-03T07:43:37;96599.88;;;4.89
48003;BMP280;33768;48.578;11.574;2022-11-03T07:46:45;96592.84;;;5.02
48003;BMP280;33768;48.578;11.574;2022-11-03T07:49:55;96586.03;;;5.23
48003;BMP280;33768;48.578;11.574;2022-11-03T07:53:00;96585.34;;;5.38
48003;BMP280;33768;48.578;11.574;2022-11-03T07:56:19;96581.72;;;5.52
48003;BMP280;33768;48.578;11.574;2022-11-03T07:59:32;96557.38;;;5.68
48003;BMP280;33768;48.578;11.574;2022-11-03T08:02:47;96553.50;;;5.86
48003;BMP280;33768;48.578;11.574;2022-11-03T08:05:51;96559.69;;;6.02
48003;BMP280;33768;48.578;11.574;2022-11-03T08:08:55;96559.44;;;6.17
48003;BMP280;33768;48.578;11.574;2022-11-03T08:12:00;96544.16;;;6.24
48003;BMP280;33768;48.578;11.574;2022-11-03T08:15:04;96532.81;;;6.31
48003;BMP280;33768;48.578;11.574;2022-11-03T08:18:09;96536.75;;;6.47
48003;BMP280;33768;48.578;11.574;2022-11-03T08:21:13;96530.56;;;6.57
48003;BMP280;33768;48.578;11.574;2022-11-03T08:24:17;96526.34;;;6.72
48003;BMP280;33768;48.578;11.574;2022-11-03T08:27:21;96505.81;;;6.87
48003;BMP280;33768;48.578;11.574;2022-11-03T08:30:26;96496.66;;;7.01
48003;BMP280;33768;48.578;11.574;2022-11-03T08:33:31;96510.13;;;7.17
48003;BMP280;33768;48.578;11.574;2022-11-03T08:36:36;96500.47;;;7.27
48003;BMP280;33768;48.578;11.574;2022-11-03T08:39:40;96485.25;;;7.59
48003;BMP280;33768;48.578;11.574;2022-11-03T08:42:44;96484.72;;;7.95
48003;BMP280;33768;48.578;11.574;2022-11-03T08:45:49;96489.25;;;8.16
48003;BMP280;33768;48.578;11.574;2022-11-03T08:49:00;96478.31;;;8.27
48003;BMP280;33768;48.578;11.574;2022-11-03T08:52:05;96478.59;;;8.47
48003;BMP280;33768;48.578;11.574;2022-11-03T08:55:09;96485.56;;;8.66
48003;BMP280;33768;48.578;11.574;2022-11-03T08:58:13;96468.16;;;8.74
48003;BMP280;33768;48.578;11.574;2022-11-03T09:01:17;96477.44;;;8.84
48003;BMP280;33768;48.578;11.574;2022-11-03T09:04:22;96482.78;;;8.95
48003;BMP280;33768;48.578;11.574;2022-11-03T09:07:26;96489.63;;;9.02
48003;BMP280;33768;48.578;11.574;2022-11-03T09:10:31;96471.72;;;8.88
48003;BMP280;33768;48.578;11.574;2022-11-03T09:13:35;96476.09;;;8.73
48003;BMP280;33768;48.578;11.574;2022-11-03T09:16:39;96467.31;;;8.61
48003;BMP280;33768;48.578;11.574;2022-11-03T09:19:43;96462.94;;;8.76
48003;BMP280;33768;48.578;11.574;2022-11-03T09:22:47;96456.44;;;8.85
48003;BMP280;33768;48.578;11.574;2022-11-03T09:25:51;96456.75;;;9.00
48003;BMP280;33768;48.578;11.574;2022-11-03T09:28:56;96448.72;;;9.25
48003;BMP280;33768;48.578;11.574;2022-11-03T09:32:00;96454.81;;;9.31
48003;BMP280;33768;48.578;11.574;2022-11-03T09:35:05;96438.84;;;9.40
48003;BMP280;33768;48.578;11.574;2022-11-03T09:38:10;96441.59;;;9.40
48003;BMP280;33768;48.578;11.574;2022-11-03T09:41:15;96442.75;;;9.27
48003;BMP280;33768;48.578;11.574;2022-11-03T09:44:23;96439.13;;;9.37
48003;BMP280;33768;48.578;11.574;2022-11-03T09:47:33;96443.19;;;9.49
48003;BMP280;33768;48.578;11.574;2022-11-03T09:50:38;96441.09;;;9.55
48003;BMP280;33768;48.578;11.574;2022-11-03T09:53:43;96441.41;;;9.51
48003;BMP280;33768;48.578;11.574;2022-11-03T09:56:47;96443.63;;;9.53
48003;BMP280;33768;48.578;11.574;2022-11-03T09:59:51;96439.66;;;9.54
48003;BMP280;33768;48.578;11.574;2022-11-03T10:02:55;96433.75;;;9.50
48003;BMP280;33768;48.578;11.574;2022-11-03T10:06:00;96431.50;;;9.36
48003;BMP280;33768;48.578;11.574;2022-11-03T10:09:09;96428.63;;;9.28
48003;BMP280;33768;48.578;11.574;2022-11-03T10:12:15;96421.09;;;9.34
48003;BMP280;33768;48.578;11.574;2022-11-03T10:15:21;96412.66;;;9.37
48003;BMP280;33768;48.578;11.574;2022-11-03T10:18:26;96400.66;;;9.28
48003;BMP280;33768;48.578;11.574;2022-11-03T10:21:31;96393.38;;;9.36
48003;BMP280;33768;48.578;11.574;2022-11-03T10:24:38;96392.88;;;9.50
48003;BMP280;33768;48.578;11.574;2022-11-03T10:27:42;96399.59;;;9.49
48003;BMP280;33768;48.578;11.574;2022-11-03T10:30:48;96389.00;;;9.45
48003;BMP280;33768;48.578;11.574;2022-11-03T10:33:54;96391.06;;;9.39
48003;BMP280;33768;48.578;11.574;2022-11-03T10:37:10;96382.81;;;9.45
48003;BMP280;33768;48.578;11.574;2022-11-03T10:40:35;96386.41;;;9.53
48003;BMP280;33768;48.578;11.574;2022-11-03T10:43:41;96378.66;;;9.57
48003;BMP280;33768;48.578;11.574;2022-11-03T10:46:57;96361.59;;;9.56
48003;BMP280;33768;48.578;11.574;2022-11-03T10:50:21;96372.63;;;9.64
48003;BMP280;33768;48.578;11.574;2022-11-03T10:53:25;96366.38;;;9.81
48003;BMP280;33768;48.578;11.574;2022-11-03T10:56:31;96364.31;;;10.00
48003;BMP280;33768;48.578;11.574;2022-11-03T10:59:36;96365.50;;;10.30
48003;BMP280;33768;48.578;11.574;2022-11-03T11:02:48;96365.41;;;10.61
48003;BMP280;33768;48.578;11.574;2022-11-03T11:05:53;96369.06;;;10.76
48003;BMP280;33768;48.578;11.574;2022-11-03T11:09:00;96351.94;;;10.76
48003;BMP280;33768;48.578;11.574;2022-11-03T11:12:06;96348.19;;;10.53
48003;BMP280;33768;48.578;11.574;2022-11-03T11:15:40;96354.50;;;10.48
48003;BMP280;33768;48.578;11.574;2022-11-03T11:24:58;96332.03;;;11.01
48003;BMP280;33768;48.578;11.574;2022-11-03T11:28:10;96339.38;;;11.06
48003;BMP280;33768;48.578;11.574;2022-11-03T11:37:38;96329.56;;;10.90
48003;BMP280;33768;48.578;11.574;2022-11-03T11:40:49;96324.50;;;10.94
48003;BMP280;33768;48.578;11.574;2022-11-03T11:50:44;96318.16;;;11.12
48003;BMP280;33768;48.578;11.574;2022-11-03T11:53:49;96306.66;;;10.93
48003;BMP280;33768;48.578;11.574;2022-11-03T11:56:54;96299.19;;;10.93
48003;BMP280;33768;48.578;11.574;2022-11-03T11:59:58;96293.72;;;10.93
48003;BMP280;33768;48.578;11.574;2022-11-03T12:03:04;96284.63;;;10.78
48003;BMP280;33768;48.578;11.574;2022-11-03T12:06:11;96294.19;;;10.85
48003;BMP280;33768;48.578;11.574;2022-11-03T12:09:21;96302.28;;;11.10
48003;BMP280;33768;48.578;11.574;2022-11-03T12:12:32;96296.31;;;11.32
48003;BMP280;33768;48.578;11.574;2022-11-03T12:16:06;96294.63;;;11.42
48003;BMP280;33768;48.578;11.574;2022-11-03T12:19:45;96285.78;;;11.36
48003;BMP280;33768;48.578;11.574;2022-11-03T12:22:50;96276.41;;;11.24
48003;BMP280;33768;48.578;11.574;2022-11-03T12:25:54;96266.00;;;11.23
48003;BMP280;33768;48.578;11.574;2022-11-03T12:28:58;96265.63;;;11.06
48003;BMP280;33768;48.578;11.574;2022-11-03T12:32:03;96261.22;;;10.83
48003;BMP280;33768;48.578;11.574;2022-11-03T12:35:08;96266.34;;;10.86
48003;BMP280;33768;48.578;11.574;2022-11-03T12:38:12;96262.78;;;10.91
48003;BMP280;33768;48.578;11.574;2022-11-03T12:41:16;96255.66;;;11.08
48003;BMP280;33768;48.578;11.574;2022-11-03T12:44:27;96247.66;;;11.10
48003;BMP280;33768;48.578;11.574;2022-11-03T12:47:31;96235.50;;;11.11
48003;BMP280;33768;48.578;11.574;2022-11-03T12:50:36;96233.78;;;11.08
48003;BMP280;33768;48.578;11.574;2022-11-03T12:53:42;96217.03;;;11.04
48003;BMP280;33768;48.578;11.574;2022-11-03T12:56:47;96214.75;;;11.16
48003;BMP280;33768;48.578;11.574;2022-11-03T12:59:51;96200.28;;;11.28
48003;BMP280;33768;48.578;11.574;2022-11-03T13:02:55;96214.72;;;11.36
48003;BMP280;33768;48.578;11.574;2022-11-03T13:06:00;96213.50;;;11.37
48003;BMP280;33768;48.578;11.574;2022-11-03T13:09:07;96211.06;;;11.33
48003;BMP280;33768;48.578;11.574;2022-11-03T13:12:11;96211.38;;;11.43
48003;BMP280;33768;48.578;11.574;2022-11-03T13:15:34;96203.94;;;11.51
48003;BMP280;33768;48.578;11.574;2022-11-03T13:18:39;96185.91;;;11.48
48003;BMP280;33768;48.578;11.574;2022-11-03T13:21:43;96186.31;;;11.52
48003;BMP280;33768;48.578;11.574;2022-11-03T13:24:47;96177.03;;;11.55
48003;BMP280;33768;48.578;11.574;2022-11-03T13:27:51;96165.63;;;11.43
48003;BMP280;33768;48.578;11.574;2022-11-03T13:31:31;96169.66;;;11.42
48003;BMP280;33768;48.578;11.574;2022-11-03T13:34:35;96147.44;;;11.46
48003;BMP280;33768;48.578;11.574;2022-11-03T13:37:39;96133.84;;;11.33
48003;BMP280;33768;48.578;11.574;2022-11-03T13:40:44;96127.69;;;11.40
48003;BMP280;33768;48.578;11.574;2022-11-03T13:43:48;96123.41;;;11.44
48003;BMP280;33768;48.578;11.574;2022-11-03T13:46:52;96120.72;;;11.52
48003;BMP280;33768;48.578;11.574;2022-11-03T13:49:57;96104.47;;;11.54
48003;BMP280;33768;48.578;11.574;2022-11-03T13:53:03;96099.53;;;11.45
48003;BMP280;33768;48.578;11.574;2022-11-03T13:56:07;96098.53;;;11.35
48003;BMP280;33768;48.578;11.574;2022-11-03T13:59:11;96103.94;;;11.27
48003;BMP280;33768;48.578;11.574;2022-11-03T14:02:15;96113.13;;;11.37
48003;BMP280;33768;48.578;11.574;2022-11-03T14:05:19;96113.19;;;11.45
48003;BMP280;33768;48.578;11.574;2022-11-03T14:08:23;96111.03;;;11.51
48003;BMP280;33768;48.578;11.574;2022-11-03T14:11:27;96099.78;;;11.54
48003;BMP280;33768;48.578;11.574;2022-11-03T14:14:50;96087.31;;;11.46
48003;BMP280;33768;48.578;11.574;2022-11-03T14:17:54;96075.78;;;11.40
48003;BMP280;33768;48.578;11.574;2022-11-03T14:20:59;96074.81;;;11.30
48003;BMP280;33768;48.578;11.574;2022-11-03T14:24:04;96066.41;;;11.28
48003;BMP280;33768;48.578;11.574;2022-11-03T14:27:08;96067.50;;;11.25
48003;BMP280;33768;48.578;11.574;2022-11-03T14:30:12;96065.66;;;11.20
48003;BMP280;33768;48.578;11.574;2022-11-03T14:33:16;96070.69;;;11.16
48003;BMP280;33768;48.578;11.574;2022-11-03T14:36:21;96073.25;;;11.14
48003;BMP280;33768;48.578;11.574;2022-11-03T14:44:15;96066.22;;;10.98
48003;BMP280;33768;48.578;11.574;2022-11-03T14:47:19;96068.75;;;10.96
48003;BMP280;33768;48.578;11.574;2022-11-03T14:50:31;96067.69;;;10.99
48003;BMP280;33768;48.578;11.574;2022-11-03T14:53:35;96066.75;;;10.97
48003;BMP280;33768;48.578;11.574;2022-11-03T14:56:39;96048.72;;;10.94
48003;BMP280;33768;48.578;11.574;2022-11-03T14:59:43;96045.34;;;10.81
48003;BMP280;33768;48.578;11.574;2022-11-03T15:02:49;96019.66;;;10.76
48003;BMP280;33768;48.578;11.574;2022-11-03T15:05:53;96037.09;;;10.73
48003;BMP280;33768;48.578;11.574;2022-11-03T15:08:58;96031.38;;;10.64
48003;BMP280;33768;48.578;11.574;2022-11-03T15:12:05;96030.97;;;10.60
48003;BMP280;33768;48.578;11.574;2022-11-03T15:15:12;96013.09;;;10.52
48003;BMP280;33768;48.578;11.574;2022-11-03T15:18:17;96010.81;;;10.43
48003;BMP280;33768;48.578;11.574;2022-11-03T15:21:21;96004.56;;;10.35
48003;BMP280;33768;48.578;11.574;2022-11-03T15:24:25;96004.34;;;10.26
48003;BMP280;33768;48.578;11.574;2022-11-03T15:27:30;95990.22;;;10.14
48003;BMP280;33768;48.578;11.574;2022-11-03T15:30:34;95991.81;;;10.10
48003;BMP280;33768;48.578;11.574;2022-11-03T15:33:38;95969.75;;;10.00
48003;BMP280;33768;48.578;11.574;2022-11-03T15:36:42;95955.84;;;9.91
48003;BMP280;33768;48.578;11.574;2022-11-03T15:39:46;95937.09;;;9.75
48003;BMP280;33768;48.578;11.574;2022-11-03T15:42:51;95925.72;;;9.64
48003;BMP280;33768;48.578;11.574;2022-11-03T15:46:05;95930.75;;;9.60
48003;BMP280;33768;48.578;11.574;2022-11-03T15:49:11;95935.09;;;9.55
48003;BMP280;33768;48.578;11.574;2022-11-03T15:52:19;95927.22;;;9.52
48003;BMP280;33768;48.578;11.574;2022-11-03T15:55:24;95919.41;;;9.48
48003;BMP280;33768;48.578;11.574;2022-11-03T15:58:28;95925.38;;;9.47
48003;BMP280;33768;48.578;11.574;2022-11-03T16:01:36;95909.03;;;9.47
48003;BMP280;33768;48.578;11.574;2022-11-03T16:04:41;95898.13;;;9.47
48003;BMP280;33768;48.578;11.574;2022-11-03T16:07:45;95901.72;;;9.42
48003;BMP280;33768;48.578;11.574;2022-11-03T16:10:49;95897.31;;;9.39
48003;BMP280;33768;48.578;11.574;2022-11-03T16:13:54;95894.22;;;9.35
48003;BMP280;33768;48.578;11.574;2022-11-03T16:16:58;95880.38;;;9.33
48003;BMP280;33768;48.578;11.574;2022-11-03T16:20:03;95868.22;;;9.34
48003;BMP280;33768;48.578;11.574;2022-11-03T16:23:07;95863.31;;;9.33
48003;BMP280;33768;48.578;11.574;2022-11-03T16:26:12;95865.09;;;9.30
48003;BMP280;33768;48.578;11.574;2022-11-03T16:29:20;95861.09;;;9.31
48003;BMP280;33768;48.578;11.574;2022-11-03T16:32:34;95852.22;;;9.31
48003;BMP280;33768;48.578;11.574;2022-11-03T16:36:03;95847.06;;;9.27
48003;BMP280;33768;48.578;11.574;2022-11-03T16:39:14;95840.91;;;9.27
48003;BMP280;33768;48.578;11.574;2022-11-03T16:42:18;95834.53;;;9.24
48003;BMP280;33768;48.578;11.574;2022-11-03T16:45:23;95825.84;;;9.26
48003;BMP280;33768;48.578;11.574;2022-11-03T16:48:29;95822.56;;;9.27
48003;BMP280;33768;48.578;11.574;2022-11-03T16:51:34;95818.25;;;9.32
48003;BMP280;33768;48.578;11.574;2022-11-03T16:54:37;95822.47;;;9.33
48003;BMP280;33768;48.578;11.574;2022-11-03T16:57:42;95792.38;;;9.38
48003;BMP280;33768;48.578;11.574;2022-11-03T17:00:46;95793.38;;;9.48
48003;BMP280;33768;48.578;11.574;2022-11-03T17:03:51;95780.75;;;9.58
48003;BMP280;33768;48.578;11.574;2022-11-03T17:06:56;95765.84;;;9.59
48003;BMP280;33768;48.578;11.574;2022-11-03T17:10:00;95757.47;;;9.57
48003;BMP280;33768;48.578;11.574;2022-11-03T17:13:05;95760.19;;;9.57
48003;BMP280;33768;48.578;11.574;2022-11-03T17:16:09;95758.53;;;9.54
48003;BMP280;33768;48.578;11.574;2022-11-03T17:19:14;95747.44;;;9.52
48003;BMP280;33768;48.578;11.574;2022-11-03T17:22:18;95743.78;;;9.49
48003;BMP280;33768;48.578;11.574;2022-11-03T17:25:41;95742.88;;;9.47
48003;BMP280;33768;48.578;11.574;2022-11-03T17:28:45;95745.41;;;9.45
48003;BMP280;33768;48.578;11.574;2022-11-03T17:31:49;95744.81;;;9.39
48003;BMP280;33768;48.578;11.574;2022-11-03T17:34:56;95748.44;;;9.41
48003;BMP280;33768;48.578;11.574;2022-11-03T17:38:03;95731.19;;;9.39
48003;BMP280;33768;48.578;11.574;2022-11-03T17:41:08;95718.13;;;9.37
48003;BMP280;33768;48.578;11.574;2022-11-03T17:44:15;95701.16;;;9.32
48003;BMP280;33768;48.578;11.574;2022-11-03T17:47:22;95704.63;;;9.32
48003;BMP280;33768;48.578;11.574;2022-11-03T17:52:17;95694.91;;;9.44
48003;BMP280;33768;48.578;11.574;2022-11-03T17:55:54;95674.97;;;9.49
48003;BMP280;33768;48.578;11.574;2022-11-03T17:59:06;95668.25;;;9.50
48003;BMP280;33768;48.578;11.574;2022-11-03T18:18:39;95645.16;;;9.43
48003;BMP280;33768;48.578;11.574;2022-11-03T18:38:00;95605.06;;;9.51
48003;BMP280;33768;48.578;11.574;2022-11-03T18:41:15;95596.38;;;9.53
48003;BMP280;33768;48.578;11.574;2022-11-03T18:50:54;95604.56;;;9.53
48003;BMP280;33768;48.578;11.574;2022-11-03T18:55:23;95599.94;;;9.40
48003;BMP280;33768;48.578;11.574;2022-11-03T18:59:52;95581.16;;;9.30
48003;BMP280;33768;48.578;11.574;2022-11-03T19:09:21;95568.41;;;9.17
48003;BMP280;33768;48.578;11.574;2022-11-03T19:18:56;95566.72;;;9.14
48003;BMP280;33768;48.578;11.574;2022-11-03T19:23:31;95550.59;;;9.16
48003;BMP280;33768;48.578;11.574;2022-11-03T19:32:33;95536.78;;;9.14
48003;BMP280;33768;48.578;11.574;2022-11-03T19:36:59;95522.25;;;9.12